NY/NJ Local METAR Reports

 

KNYC - NYC/Central Park, NY, USA
Distance from Hoboken: NE 4mi, 7km
Updated: 01/18/2018 5:51pm
Clear
Clear
 Wind from NW
Wind: NW 8 mph , 13 km/h, Gust: 18 mph , 30 km/h
Temperature: 30°F , -1°C
Wind Chill: 22°F , -6°C
Dew Point: 10°F , -12°C
Humidity: 43%
Barometer: 30.01 inHg , 1016.3 hPa
Clouds: Clear
Visibility: 10 miles , 16 km
2018/01/18 22:51 KNYC 182251Z AUTO 31007G16KT 280V350 10SM CLR M01/M12 A3001 RMK AO2 SLP154 T10061117 PWINO FZRANO $
KEWR - Newark, NJ, USA
Distance from Hoboken: WSW 8mi, 13km
Updated: 01/18/2018 5:51pm
Clear
Clear
 Wind from WNW
Wind: WNW 12 mph , 19 km/h, Gust: 20 mph , 31 km/h
Temperature: 30°F , -1°C
Wind Chill: 20°F , -7°C
Dew Point: 10°F , -12°C
Humidity: 43%
Barometer: 30.01 inHg , 1016.3 hPa
Clouds: Clear
Visibility: 10 miles , 16 km
2018/01/18 22:51 KEWR 182251Z 29010G17KT 10SM CLR M01/M12 A3001 RMK AO2 SLP161 T10111117
 
KLGA - NYC/La Guardia, NY, USA
Distance from Hoboken: ENE 8mi, 13km
Updated: 01/18/2018 5:51pm
Clear
Clear
 Wind from NW
Wind: NW 13 mph , 20 km/h
Temperature: 30°F , -1°C
Wind Chill: 20°F , -7°C
Dew Point: 14°F , -10°C
Humidity: 51%
Barometer: 29.99 inHg , 1015.6 hPa
Clouds: Clear
Visibility: 10 miles , 16 km
2018/01/18 22:51 KLGA 182251Z 32011KT 10SM CLR M01/M10 A2999 RMK AO2 SLP156 T10061100
KTEB - Teterboro, NJ, USA
Distance from Hoboken: N 9mi, 14km
Updated: 01/18/2018 5:51pm
Clear
Clear
 Wind from NW
Wind: NW 9 mph , 15 km/h, Gust: 18 mph , 30 km/h
Temperature: 30°F , -1°C
Wind Chill: 22°F , -6°C
Dew Point: 12°F , -11°C
Humidity: 47%
Barometer: 29.99 inHg , 1015.6 hPa
Clouds: Clear
Visibility: 10 miles , 16 km
2018/01/18 22:51 KTEB 182251Z 32008G16KT 10SM CLR M01/M11 A2999 RMK AO2 SLP156 T10111106
 
KJFK - NYC/Jfk Arpt, NY, USA
Distance from Hoboken: ESE 16mi, 25km
Updated: 01/18/2018 5:51pm
Clear
Clear
 Wind from NW
Wind: NW 16 mph , 26 km/h, Gust: 22 mph , 35 km/h
Temperature: 30°F , -1°C
Wind Chill: 19°F , -7°C
Dew Point: 12°F , -11°C
Humidity: 47%
Barometer: 30.00 inHg , 1015.9 hPa
Clouds: Clear
Visibility: 10 miles , 16 km
2018/01/18 22:51 KJFK 182251Z 31014G19KT 10SM CLR M01/M11 A3000 RMK AO2 SLP157 T10061106 $
KCDW - Caldwell, NJ, USA
Distance from Hoboken: NW 16mi, 26km
Updated: 01/18/2018 5:53pm
Clear
Clear
 Wind from calm
Wind: Calm
Temperature: 27°F , -3°C
Dew Point: 10°F , -12°C
Humidity: 50%
Barometer: 30.01 inHg , 1016.3 hPa
Clouds: Clear
Visibility: 10 miles , 16 km
2018/01/18 22:53 KCDW 182253Z 00000KT 10SM CLR M03/M12 A3001 RMK AO2 SLP169 T10281117
 
KMMU - Morristown Muni, NJ, USA
Distance from Hoboken: W 20mi, 33km
Updated: 01/18/2018 5:50pm
Clear
Clear
 Wind from NNW
Wind: NNW 5 mph , 7 km/h
Temperature: 27°F , -3°C
Wind Chill: 21°F , -6°C
Dew Point: 14°F , -10°C
Humidity: 59%
Barometer: 30.01 inHg , 1016.3 hPa
Clouds: Clear
Visibility: 10 miles , 16 km
2018/01/18 22:50 KMMU 182250Z 33004KT 10SM SKC M03/M10 A3001
KHPN - White Plains, NY, USA
Distance from Hoboken: NE 28mi, 46km
Updated: 01/18/2018 5:56pm
Clear
Clear
 Wind from NNW
Wind: NNW 6 mph , 9 km/h
Temperature: 25°F , -4°C
Wind Chill: 18°F , -8°C
Dew Point: 12°F , -11°C
Humidity: 59%
Barometer: 29.96 inHg , 1014.6 hPa
Clouds: Clear
Visibility: 10 miles , 16 km
2018/01/18 22:56 KHPN 182256Z 33005KT 10SM CLR M04/M11 A2996 RMK AO2 SLP159 T10391111
 
KFRG - Farmingdale, NY, USA
Distance from Hoboken: E 32mi, 52km
Updated: 01/18/2018 5:53pm
Clear
Clear
 Wind from N
Wind: N 10 mph , 17 km/h
Temperature: 28°F , -2°C
Wind Chill: 19°F , -7°C
Dew Point: 12°F , -11°C
Humidity: 51%
Barometer: 29.98 inHg , 1015.2 hPa
Clouds: Clear
Visibility: 10 miles , 16 km
2018/01/18 22:53 KFRG 182253Z 01009KT 10SM CLR M02/M11 A2998 RMK AO2 SLP155 T10171106
KSMQ - Somerville, NJ, USA
Distance from Hoboken: WSW 34mi, 55km
Updated: 01/18/2018 5:53pm
Clear
Clear
 Wind from WNW
Wind: WNW 3 mph , 6 km/h
Temperature: 27°F , -3°C
Dew Point: 12°F , -11°C
Humidity: 54%
Barometer: 30.00 inHg , 1015.9 hPa
Clouds: Clear
Visibility: 10 miles , 16 km
2018/01/18 22:53 KSMQ 182253Z AUTO 30003KT 10SM CLR M03/M11 A3000 RMK AO2 SLP161 T10281111
 
KBLM - Belmar/Farmdale, NJ, USA
Distance from Hoboken: S 40mi, 64km
Updated: 01/18/2018 5:56pm
Clear
Clear
 Wind from W
Wind: W 7 mph , 11 km/h
Temperature: 27°F , -3°C
Wind Chill: 19°F , -7°C
Dew Point: 12°F , -11°C
Humidity: 54%
Barometer: 30.02 inHg , 1016.6 hPa
Clouds: Clear
Visibility: 10 miles , 16 km
2018/01/18 22:56 KBLM 182256Z AUTO 27006KT 10SM CLR M03/M11 A3002 RMK AO2 SLP170 T10281111 FZRANO
K12N - Andover, NJ, USA
Distance from Hoboken: WNW 41mi, 67km
Updated: 01/18/2018 5:54pm

 Wind from varies
Wind: varies 3 mph , 6 km/h
Temperature: 25°F , -4°C
Dew Point: 10°F , -12°C
Humidity: 54%
Barometer: 29.98 inHg , 1015.2 hPa
2018/01/18 22:54 K12N 182254Z AUTO VRB03KT M04/M12 A2998 RMK AO1 SLP175 T10441122
 
KFWN - Sussex, NJ, USA
Distance from Hoboken: NW 45mi, 72km
Updated: 01/18/2018 5:53pm
Clear
Clear
 Wind from varies
Wind: varies 3 mph , 6 km/h
Temperature: 27°F , -3°C
Dew Point: 10°F , -12°C
Humidity: 50%
Barometer: 29.98 inHg , 1015.2 hPa
Clouds: Clear
Visibility: 10 miles , 16 km
2018/01/18 22:53 KFWN 182253Z AUTO VRB03KT 10SM CLR M03/M12 A2998 RMK AO2 SLP160 T10331117
KISP - Islip, NY, USA
Distance from Hoboken: E 49mi, 79km
Updated: 01/18/2018 5:56pm
Clear
Clear
 Wind from NW
Wind: NW 8 mph , 13 km/h
Temperature: 28°F , -2°C
Wind Chill: 20°F , -7°C
Dew Point: 14°F , -10°C
Humidity: 55%
Barometer: 29.97 inHg , 1014.9 hPa
Clouds: Clear
Visibility: 10 miles , 16 km
2018/01/18 22:56 KISP 182256Z 32007KT 10SM CLR M02/M10 A2997 RMK AO2 SLP150 T10221100